Lenox, Georgia
Current Conditions -  °F | °C
As of 1:15 AM on Monday 22 Dec 2014 (Local Time) from KTMA Reporting Station
Haze Haze  
Wind Chill: 47°   Ceiling: 200
Heat Index: 49°   Visibility: 1.2mi
Dew Point: 49°   Wind: 5mph
Humidity: 100%   Direction: 360°N
Pressure: 30.03"   Gusts: NA
Location:  31.27°N, 83.46°W
Report Text: KTMA 220615Z AUTO 36004KT 1 1/4SM BR OVC002 09/09 A3003 RMK AO2 T00940094
Loading
Personal Weather Stations






























Interactive Weather Map New forecast layout! Learn more

10-Day Weather Forecast

Advertisements
Track Severe Weather on mobile